Time,TemperatureF,DewpointF,PressureIn,WindDirection,WindDirectionDegrees,WindSpeedMPH,WindSpeedGustMPH,Humidity,HourlyPrecipIn,Conditions,Clouds,dailyrainin,SolarRadiationWatts/m^2,SoftwareType,DateUTC
2013-01-22 00:02:00,55.7,22.2,30.06,NNE,15,1.1,1.1,27,0.00,CLR,,0.00,0.0,WeatherDisplay:10.37,2013-01-22 08:02:00,
2013-01-22 00:07:00,55.1,21.7,30.06,NNE,15,0.0,0.0,27,0.00,CLR,,0.00,0.0,WeatherDisplay:10.37,2013-01-22 08:07:00,
2013-01-22 00:12:00,54.7,22.2,30.06,NNE,15,1.0,0.0,28,0.00,CLR,,0.00,0.0,WeatherDisplay:10.37,2013-01-22 08:12:00,
2013-01-22 00:17:00,54.2,21.8,30.06,NNE,15,1.1,1.1,28,0.00,CLR,,0.00,0.0,WeatherDisplay:10.37,2013-01-22 08:17:00,
2013-01-22 00:22:00,53.9,22.3,30.05,NNE,15,1.1,0.0,29,0.00,CLR,,0.00,0.0,WeatherDisplay:10.37,2013-01-22 08:22:00,
2013-01-22 00:27:00,53.6,23.7,30.05,NNE,15,1.1,0.0,31,0.00,CLR,,0.00,0.0,WeatherDisplay:10.37,2013-01-22 08:27:00,
2013-01-22 00:33:00,53.2,22.5,30.05,NNE,15,0.0,0.0,30,0.00,CLR,,0.00,0.0,WeatherDisplay:10.37,2013-01-22 08:33:00,
2013-01-22 00:38:00,53.1,20.8,30.05,NNE,15,0.0,0.0,28,0.00,CLR,,0.00,0.0,WeatherDisplay:10.37,2013-01-22 08:38:00,
2013-01-22 00:43:00,53.3,21.0,30.05,NNE,15,1.1,0.0,28,0.00,CLR,,0.00,0.0,WeatherDisplay:10.37,2013-01-22 08:43:00,
2013-01-22 00:48:00,53.3,20.1,30.05,NNE,15,0.0,0.0,27,0.00,CLR,,0.00,0.0,WeatherDisplay:10.37,2013-01-22 08:48:00,
2013-01-22 00:53:00,52.9,24.5,30.06,NNW,332,3.5,3.5,33,0.00,CLR,,0.00,0.0,WeatherDisplay:10.37,2013-01-22 08:53:00,
2013-01-22 00:58:00,52.7,25.8,30.06,NNW,332,2.3,2.3,35,0.00,CLR,,0.00,0.0,WeatherDisplay:10.37,2013-01-22 08:58:00,
2013-01-22 01:03:00,52.7,25.1,30.06,NNW,332,0.0,0.0,34,0.00,CLR,,0.00,0.0,WeatherDisplay:10.37,2013-01-22 09:03:00,
2013-01-22 01:08:00,52.4,25.5,30.06,NNW,332,1.0,0.0,35,0.00,CLR,,0.00,0.0,WeatherDisplay:10.37,2013-01-22 09:08:00,
2013-01-22 01:13:00,52.4,26.2,30.06,NNW,332,1.1,0.0,36,0.00,CLR,,0.00,0.0,WeatherDisplay:10.37,2013-01-22 09:13:00,
2013-01-22 01:18:00,52.2,25.3,30.06,NNW,332,1.1,0.0,35,0.00,CLR,,0.00,0.0,WeatherDisplay:10.37,2013-01-22 09:18:00,
2013-01-22 01:23:00,51.8,26.3,30.06,NNW,332,2.3,2.3,37,0.00,CLR,,0.00,0.0,WeatherDisplay:10.37,2013-01-22 09:23:00,
2013-01-22 01:28:00,51.7,26.2,30.06,NNW,332,3.0,3.0,37,0.00,CLR,,0.00,0.0,WeatherDisplay:10.37,2013-01-22 09:28:00,
2013-01-22 01:33:00,51.8,24.3,30.06,NNW,332,2.3,2.3,34,0.00,CLR,,0.00,0.0,WeatherDisplay:10.37,2013-01-22 09:33:00,
2013-01-22 01:38:00,52.7,22.1,30.06,NNW,339,3.5,3.5,30,0.00,CLR,,0.00,0.0,WeatherDisplay:10.37,2013-01-22 09:38:00,
2013-01-22 01:43:00,53.7,21.3,30.06,NNW,341,3.5,3.5,28,0.00,CLR,,0.00,0.0,WeatherDisplay:10.37,2013-01-22 09:43:00,
2013-01-22 01:48:00,54.3,20.1,30.06,NNE,15,3.5,3.5,26,0.00,CLR,,0.00,0.0,WeatherDisplay:10.37,2013-01-22 09:48:00,
2013-01-22 01:53:00,55.1,19.9,30.06,NNE,25,3.5,3.5,25,0.00,CLR,,0.00,0.0,WeatherDisplay:10.37,2013-01-22 09:53:00,
2013-01-22 01:58:00,55.0,20.7,30.06,NNE,22,4.0,4.0,26,0.00,CLR,,0.00,0.0,WeatherDisplay:10.37,2013-01-22 09:58:00,
2013-01-22 02:03:00,54.6,22.1,30.06,NNE,22,3.5,3.5,28,0.00,CLR,,0.00,0.0,WeatherDisplay:10.37,2013-01-22 10:03:00,
2013-01-22 02:08:00,54.3,21.0,30.06,NNE,22,3.5,3.5,27,0.00,CLR,,0.00,0.0,WeatherDisplay:10.37,2013-01-22 10:08:00,
2013-01-22 02:13:00,54.5,21.2,30.05,NNE,22,2.3,2.3,27,0.00,CLR,,0.00,0.0,WeatherDisplay:10.37,2013-01-22 10:13:00,
2013-01-22 02:18:00,54.5,21.2,30.06,NNE,22,3.0,3.0,27,0.00,CLR,,0.00,0.0,WeatherDisplay:10.37,2013-01-22 10:18:00,
2013-01-22 02:23:00,55.1,19.9,30.06,NNE,26,3.5,3.5,25,0.00,CLR,,0.00,0.0,WeatherDisplay:10.37,2013-01-22 10:23:00,
2013-01-22 02:28:00,55.1,19.9,30.06,NNE,26,2.3,2.3,25,0.00,CLR,,0.00,0.0,WeatherDisplay:10.37,2013-01-22 10:28:00,
2013-01-22 02:33:00,54.8,19.6,30.06,NNE,26,3.0,3.0,25,0.00,CLR,,0.00,0.0,WeatherDisplay:10.37,2013-01-22 10:33:00,
2013-01-22 02:38:00,54.3,20.1,30.06,NNE,15,3.5,3.5,26,0.00,CLR,,0.00,0.0,WeatherDisplay:10.37,2013-01-22 10:38:00,
2013-01-22 02:43:00,54.0,19.8,30.06,NNE,13,2.3,2.3,26,0.00,CLR,,0.00,0.0,WeatherDisplay:10.37,2013-01-22 10:43:00,
2013-01-22 02:48:00,53.5,20.3,30.06,NNE,13,3.5,3.5,27,0.00,CLR,,0.00,0.0,WeatherDisplay:10.37,2013-01-22 10:48:00,
2013-01-22 02:53:00,53.0,19.9,30.06,North,11,3.5,3.5,27,0.00,CLR,,0.00,0.0,WeatherDisplay:10.37,2013-01-22 10:53:00,
2013-01-22 02:58:00,53.0,20.7,30.05,North,10,3.0,3.0,28,0.00,CLR,,0.00,0.0,WeatherDisplay:10.37,2013-01-22 10:58:00,
2013-01-22 03:03:00,52.9,20.6,30.06,North,10,2.3,0.0,28,0.00,CLR,,0.00,0.0,WeatherDisplay:10.37,2013-01-22 11:03:00,
2013-01-22 03:08:00,52.7,20.5,30.06,North,10,2.3,2.3,28,0.00,CLR,,0.00,0.0,WeatherDisplay:10.37,2013-01-22 11:08:00,
2013-01-22 03:13:00,52.4,21.0,30.06,North,10,1.1,1.1,29,0.00,CLR,,0.00,0.0,WeatherDisplay:10.37,2013-01-22 11:13:00,
2013-01-22 03:18:00,52.0,21.5,30.06,North,10,3.5,3.5,30,0.00,CLR,,0.00,0.0,WeatherDisplay:10.37,2013-01-22 11:18:00,
2013-01-22 03:23:00,51.7,22.0,30.05,North,10,3.5,3.5,31,0.00,CLR,,0.00,0.0,WeatherDisplay:10.37,2013-01-22 11:23:00,
2013-01-22 03:28:00,51.4,21.7,30.05,North,10,2.3,2.3,31,0.00,CLR,,0.00,0.0,WeatherDisplay:10.37,2013-01-22 11:28:00,
2013-01-22 03:33:00,51.2,22.3,30.05,North,10,1.1,1.1,32,0.00,CLR,,0.00,0.0,WeatherDisplay:10.37,2013-01-22 11:33:00,
2013-01-22 03:38:00,50.9,22.1,30.05,North,10,1.1,1.1,32,0.00,CLR,,0.00,0.0,WeatherDisplay:10.37,2013-01-22 11:38:00,
2013-01-22 03:43:00,50.6,22.5,30.05,North,10,2.3,2.3,33,0.00,CLR,,0.00,0.0,WeatherDisplay:10.37,2013-01-22 11:43:00,
2013-01-22 03:48:00,50.5,23.1,30.05,North,10,4.0,4.0,34,0.00,CLR,,0.00,0.0,WeatherDisplay:10.37,2013-01-22 11:48:00,
2013-01-22 03:53:00,50.4,23.1,30.05,North,5,3.5,3.5,34,0.00,CLR,,0.00,0.0,WeatherDisplay:10.37,2013-01-22 11:53:00,
2013-01-22 03:58:00,50.3,23.0,30.05,North,5,3.5,3.5,34,0.00,CLR,,0.00,0.0,WeatherDisplay:10.37,2013-01-22 11:58:00,
2013-01-22 04:03:00,50.5,23.1,30.05,North,355,4.6,4.6,34,0.00,CLR,,0.00,0.0,WeatherDisplay:10.37,2013-01-22 12:03:00,
2013-01-22 04:08:00,50.6,23.2,30.05,NNW,344,2.3,2.3,34,0.00,CLR,,0.00,0.0,WeatherDisplay:10.37,2013-01-22 12:08:00,
2013-01-22 04:13:00,50.5,23.1,30.05,NNW,344,2.3,2.3,34,0.00,CLR,,0.00,0.0,WeatherDisplay:10.37,2013-01-22 12:13:00,
2013-01-22 04:18:00,50.2,23.6,30.05,NNW,344,3.5,3.5,35,0.00,CLR,,0.00,0.0,WeatherDisplay:10.37,2013-01-22 12:18:00,
2013-01-22 04:23:00,49.9,23.3,30.05,North,350,4.0,4.0,35,0.00,CLR,,0.00,0.0,WeatherDisplay:10.37,2013-01-22 12:23:00,
2013-01-22 04:28:00,49.8,22.5,30.05,North,351,2.3,2.3,34,0.00,CLR,,0.00,0.0,WeatherDisplay:10.37,2013-01-22 12:28:00,
2013-01-22 04:33:00,49.8,22.5,30.05,North,351,1.1,1.1,34,0.00,CLR,,0.00,0.0,WeatherDisplay:10.37,2013-01-22 12:33:00,
2013-01-22 04:38:00,49.7,22.4,30.05,North,351,2.3,2.3,34,0.00,CLR,,0.00,0.0,WeatherDisplay:10.37,2013-01-22 12:38:00,
2013-01-22 04:43:00,50.2,22.9,30.05,NW,311,4.6,4.6,34,0.00,CLR,,0.00,0.0,WeatherDisplay:10.37,2013-01-22 12:43:00,
2013-01-22 04:48:00,50.2,22.9,30.05,NW,311,3.0,3.0,34,0.00,CLR,,0.00,0.0,WeatherDisplay:10.37,2013-01-22 12:48:00,
2013-01-22 04:53:00,49.7,23.1,30.05,NW,311,1.1,1.1,35,0.00,CLR,,0.00,0.0,WeatherDisplay:10.37,2013-01-22 12:53:00,
2013-01-22 04:58:00,49.0,22.5,30.05,NW,311,1.1,1.1,35,0.00,CLR,,0.00,0.0,WeatherDisplay:10.37,2013-01-22 12:58:00,
2013-01-22 05:03:00,48.7,22.9,30.05,NW,311,1.0,1.0,36,0.00,CLR,,0.00,0.0,WeatherDisplay:10.37,2013-01-22 13:03:00,
2013-01-22 05:09:00,48.3,23.2,30.05,South,179,1.1,1.1,37,0.00,CLR,,0.00,0.0,WeatherDisplay:10.37,2013-01-22 13:09:00,
2013-01-22 05:14:00,48.0,23.6,30.06,SSE,167,1.1,1.1,38,0.00,CLR,,0.00,0.0,WeatherDisplay:10.37,2013-01-22 13:14:00,
2013-01-22 05:19:00,47.6,23.8,30.06,SSE,157,2.0,2.0,39,0.00,CLR,,0.00,0.0,WeatherDisplay:10.37,2013-01-22 13:19:00,
2013-01-22 05:24:00,47.4,22.4,30.06,NE,40,3.5,3.5,37,0.00,CLR,,0.00,0.0,WeatherDisplay:10.37,2013-01-22 13:24:00,
2013-01-22 05:29:00,47.6,23.2,30.06,NE,40,2.3,2.3,38,0.00,CLR,,0.00,0.0,WeatherDisplay:10.37,2013-01-22 13:29:00,
2013-01-22 05:34:00,47.4,23.0,30.06,NE,40,0.0,0.0,38,0.00,CLR,,0.00,0.0,WeatherDisplay:10.37,2013-01-22 13:34:00,
2013-01-22 05:39:00,47.3,22.9,30.07,NE,40,1.1,1.1,38,0.00,CLR,,0.00,0.0,WeatherDisplay:10.37,2013-01-22 13:39:00,
2013-01-22 05:44:00,47.4,23.7,30.07,NE,36,2.3,2.3,39,0.00,CLR,,0.00,0.0,WeatherDisplay:10.37,2013-01-22 13:44:00,
2013-01-22 05:49:00,47.1,23.4,30.07,NE,36,1.1,1.1,39,0.00,CLR,,0.00,0.0,WeatherDisplay:10.37,2013-01-22 13:49:00,
2013-01-22 05:54:00,47.0,23.9,30.07,NE,36,1.1,1.1,40,0.00,CLR,,0.00,0.0,WeatherDisplay:10.37,2013-01-22 13:54:00,
2013-01-22 05:59:00,47.2,23.5,30.07,NE,36,1.1,1.1,39,0.00,CLR,,0.00,0.0,WeatherDisplay:10.37,2013-01-22 13:59:00,
2013-01-22 06:04:00,47.6,23.2,30.07,NE,36,1.1,1.1,38,0.00,CLR,,0.00,0.0,WeatherDisplay:10.37,2013-01-22 14:04:00,
2013-01-22 06:09:00,47.9,23.5,30.07,NE,36,2.3,0.0,38,0.00,CLR,,0.00,0.0,WeatherDisplay:10.37,2013-01-22 14:09:00,
2013-01-22 06:14:00,47.8,23.4,30.07,NE,36,0.0,0.0,38,0.00,CLR,,0.00,0.0,WeatherDisplay:10.37,2013-01-22 14:14:00,
2013-01-22 06:19:00,47.5,24.3,30.08,SSE,167,5.0,5.0,40,0.00,CLR,,0.00,0.0,WeatherDisplay:10.37,2013-01-22 14:19:00,
2013-01-22 06:24:00,47.1,24.6,30.08,South,171,3.5,3.5,41,0.00,CLR,,0.00,0.0,WeatherDisplay:10.37,2013-01-22 14:24:00,
2013-01-22 06:29:00,46.7,24.8,30.08,South,171,0.0,0.0,42,0.00,CLR,,0.00,0.0,WeatherDisplay:10.37,2013-01-22 14:29:00,
2013-01-22 06:34:00,46.3,25.0,30.08,South,171,0.0,0.0,43,0.00,CLR,,0.00,0.0,WeatherDisplay:10.37,2013-01-22 14:34:00,
2013-01-22 06:39:00,45.7,25.0,30.08,South,170,0.0,0.0,44,0.00,CLR,,0.00,0.0,WeatherDisplay:10.37,2013-01-22 14:39:00,
2013-01-22 06:44:00,44.8,25.3,30.08,NNE,32,3.5,3.5,46,0.00,CLR,,0.00,0.0,WeatherDisplay:10.37,2013-01-22 14:44:00,
2013-01-22 06:49:00,44.8,24.7,30.08,NNE,32,1.1,0.0,45,0.00,CLR,,0.00,0.0,WeatherDisplay:10.37,2013-01-22 14:49:00,
2013-01-22 06:54:00,44.8,24.7,30.08,NNE,32,3.5,3.5,45,0.00,CLR,,0.00,5.0,WeatherDisplay:10.37,2013-01-22 14:54:00,
2013-01-22 06:59:00,44.9,24.8,30.08,NNE,31,2.3,0.0,45,0.00,CLR,,0.00,7.0,WeatherDisplay:10.37,2013-01-22 14:59:00,
2013-01-22 07:04:00,45.0,24.9,30.08,NNE,31,2.0,2.0,45,0.00,FEW,,0.00,11.0,WeatherDisplay:10.37,2013-01-22 15:04:00,
2013-01-22 07:09:00,45.9,25.2,30.08,NNE,30,3.5,3.5,44,0.00,SCT,,0.00,16.0,WeatherDisplay:10.37,2013-01-22 15:09:00,
2013-01-22 07:14:00,46.4,25.1,30.08,NNE,29,2.3,2.3,43,0.00,SCT,,0.00,19.0,WeatherDisplay:10.37,2013-01-22 15:14:00,
2013-01-22 07:19:00,46.7,25.9,30.08,NNE,29,2.3,2.3,44,0.00,BKN,,0.00,23.0,WeatherDisplay:10.37,2013-01-22 15:19:00,
2013-01-22 07:24:00,47.0,25.6,30.08,NNE,29,0.0,0.0,43,0.00,SCT,,0.00,30.0,WeatherDisplay:10.37,2013-01-22 15:24:00,
2013-01-22 07:29:00,47.4,26.0,30.08,NNE,15,3.0,3.0,43,0.00,SCT,,0.00,40.0,WeatherDisplay:10.37,2013-01-22 15:29:00,
2013-01-22 07:34:00,48.4,26.3,30.08,NNE,15,0.0,0.0,42,0.00,SCT,,0.00,54.0,WeatherDisplay:10.37,2013-01-22 15:34:00,
2013-01-22 07:39:00,48.8,26.7,30.08,NNE,15,1.1,0.0,42,0.00,SCT,,0.00,67.0,WeatherDisplay:10.37,2013-01-22 15:39:00,
2013-01-22 07:44:00,49.3,27.7,30.08,NNE,15,0.0,0.0,43,0.00,FEW,,0.00,79.0,WeatherDisplay:10.37,2013-01-22 15:44:00,
2013-01-22 07:49:00,49.7,26.9,30.08,NNE,15,1.1,1.1,41,0.00,FEW,,0.00,95.0,WeatherDisplay:10.37,2013-01-22 15:49:00,
2013-01-22 07:54:00,50.0,27.8,30.08,NNE,15,1.1,0.0,42,0.00,CLR,,0.00,113.0,WeatherDisplay:10.37,2013-01-22 15:54:00,
2013-01-22 07:59:00,50.6,26.5,30.09,NNE,15,1.1,1.1,39,0.00,CLR,,0.00,128.0,WeatherDisplay:10.37,2013-01-22 15:59:00,
2013-01-22 08:04:00,51.2,25.8,30.09,NNE,12,2.3,2.3,37,0.00,CLR,,0.00,142.0,WeatherDisplay:10.37,2013-01-22 16:04:00,
2013-01-22 08:09:00,51.9,25.1,30.09,NNE,12,1.1,1.1,35,0.00,CLR,,0.00,158.0,WeatherDisplay:10.37,2013-01-22 16:09:00,
2013-01-22 08:14:00,52.5,25.6,30.09,NNE,12,1.1,0.0,35,0.00,CLR,,0.00,176.0,WeatherDisplay:10.37,2013-01-22 16:14:00,
2013-01-22 08:19:00,53.2,25.5,30.09,NNE,12,1.0,1.0,34,0.00,CLR,,0.00,193.0,WeatherDisplay:10.37,2013-01-22 16:19:00,
2013-01-22 08:24:00,53.7,26.0,30.09,NNE,12,1.1,1.1,34,0.00,CLR,,0.00,207.0,WeatherDisplay:10.37,2013-01-22 16:24:00,
2013-01-22 08:29:00,54.3,26.5,30.09,NNE,12,0.0,0.0,34,0.00,CLR,,0.00,223.0,WeatherDisplay:10.37,2013-01-22 16:29:00,
2013-01-22 08:34:00,54.9,27.0,30.09,NNE,12,2.3,2.3,34,0.00,CLR,,0.00,234.0,WeatherDisplay:10.37,2013-01-22 16:34:00,
2013-01-22 08:39:00,55.5,26.8,30.10,NW,320,2.3,2.3,33,0.00,CLR,,0.00,248.0,WeatherDisplay:10.37,2013-01-22 16:39:00,
2013-01-22 08:44:00,55.9,27.9,30.10,WNW,295,2.3,2.3,34,0.00,CLR,,0.00,269.0,WeatherDisplay:10.37,2013-01-22 16:44:00,
2013-01-22 08:49:00,56.2,26.7,30.10,WNW,295,2.3,2.3,32,0.00,CLR,,0.00,292.0,WeatherDisplay:10.37,2013-01-22 16:49:00,
2013-01-22 08:54:00,56.6,27.0,30.10,WNW,294,3.5,3.5,32,0.00,CLR,,0.00,306.0,WeatherDisplay:10.37,2013-01-22 16:54:00,
2013-01-22 08:59:00,57.0,27.4,30.10,WNW,294,2.3,2.3,32,0.00,CLR,,0.00,318.0,WeatherDisplay:10.37,2013-01-22 16:59:00,
2013-01-22 09:04:00,57.6,27.2,30.10,WNW,298,2.3,2.3,31,0.00,CLR,,0.00,327.0,WeatherDisplay:10.37,2013-01-22 17:04:00,
2013-01-22 09:09:00,58.4,27.9,30.10,NW,312,3.5,3.5,31,0.00,CLR,,0.00,345.0,WeatherDisplay:10.37,2013-01-22 17:09:00,
2013-01-22 09:14:00,59.3,28.6,30.10,NW,317,2.3,2.3,31,0.00,CLR,,0.00,359.0,WeatherDisplay:10.37,2013-01-22 17:14:00,
2013-01-22 09:19:00,60.2,26.9,30.11,NW,325,3.5,3.5,28,0.00,CLR,,0.00,376.0,WeatherDisplay:10.37,2013-01-22 17:19:00,
2013-01-22 09:24:00,60.9,27.5,30.11,NW,326,3.5,3.5,28,0.00,CLR,,0.00,390.0,WeatherDisplay:10.37,2013-01-22 17:24:00,
2013-01-22 09:29:00,61.9,26.6,30.11,NNW,331,3.5,3.5,26,0.00,CLR,,0.00,403.0,WeatherDisplay:10.37,2013-01-22 17:29:00,
2013-01-22 09:34:00,62.7,26.3,30.11,NNW,333,3.5,3.5,25,0.00,CLR,,0.00,413.0,WeatherDisplay:10.37,2013-01-22 17:34:00,
2013-01-22 09:39:00,63.5,23.9,30.11,NNW,348,3.5,3.5,22,0.00,CLR,,0.00,429.0,WeatherDisplay:10.37,2013-01-22 17:39:00,
2013-01-22 09:44:00,64.2,23.4,30.10,NNW,346,4.0,4.0,21,0.00,CLR,,0.00,441.0,WeatherDisplay:10.37,2013-01-22 17:44:00,
2013-01-22 09:49:00,64.8,23.9,30.10,NNW,348,3.5,3.5,21,0.00,CLR,,0.00,438.0,WeatherDisplay:10.37,2013-01-22 17:49:00,
2013-01-22 09:54:00,65.5,23.3,30.10,NNW,344,4.0,4.0,20,0.00,CLR,,0.00,443.0,WeatherDisplay:10.37,2013-01-22 17:54:00,
2013-01-22 09:59:00,66.3,24.0,30.10,North,9,3.5,3.5,20,0.00,CLR,,0.00,466.0,WeatherDisplay:10.37,2013-01-22 17:59:00,
2013-01-22 10:04:00,67.1,23.4,30.10,North,355,3.5,3.5,19,0.00,CLR,,0.00,471.0,WeatherDisplay:10.37,2013-01-22 18:04:00,
2013-01-22 10:09:00,67.6,22.5,30.10,NNW,338,4.6,4.6,18,0.00,CLR,,0.00,475.0,WeatherDisplay:10.37,2013-01-22 18:09:00,
2013-01-22 10:15:00,68.2,21.7,30.10,NNW,336,3.5,3.5,17,0.00,CLR,,0.00,496.0,WeatherDisplay:10.37,2013-01-22 18:15:00,
2013-01-22 10:20:00,68.9,20.8,30.10,NNW,328,4.0,4.0,16,0.00,CLR,,0.00,512.0,WeatherDisplay:10.37,2013-01-22 18:20:00,
2013-01-22 10:25:00,69.5,19.8,30.10,NNW,348,3.5,3.5,15,0.00,CLR,,0.00,519.0,WeatherDisplay:10.37,2013-01-22 18:25:00,
2013-01-22 10:30:00,70.1,21.8,30.10,NNW,343,4.0,4.0,16,0.00,CLR,,0.00,520.0,WeatherDisplay:10.37,2013-01-22 18:30:00,
2013-01-22 10:35:00,70.6,19.0,30.10,NNW,339,4.0,4.0,14,0.00,CLR,,0.00,531.0,WeatherDisplay:10.37,2013-01-22 18:35:00,
2013-01-22 10:40:00,71.1,19.4,30.09,NNW,347,4.6,4.6,14,0.00,CLR,,0.00,538.0,WeatherDisplay:10.37,2013-01-22 18:40:00,
2013-01-22 10:45:00,71.6,19.8,30.09,NW,321,5.0,5.0,14,0.00,CLR,,0.00,550.0,WeatherDisplay:10.37,2013-01-22 18:45:00,
2013-01-22 10:50:00,71.9,18.3,30.09,NNW,333,3.5,3.5,13,0.00,CLR,,0.00,555.0,WeatherDisplay:10.37,2013-01-22 18:50:00,
2013-01-22 10:55:00,72.5,18.8,30.09,NNW,348,4.6,4.6,13,0.00,CLR,,0.00,554.0,WeatherDisplay:10.37,2013-01-22 18:55:00,
2013-01-22 11:00:00,72.9,17.3,30.09,NW,325,3.5,3.5,12,0.00,CLR,,0.00,568.0,WeatherDisplay:10.37,2013-01-22 19:00:00,
2013-01-22 11:05:00,73.3,19.4,30.09,NW,325,2.3,2.3,13,0.00,CLR,,0.00,564.0,WeatherDisplay:10.37,2013-01-22 19:05:00,
2013-01-22 11:10:00,73.9,19.9,30.08,NW,325,4.0,4.0,13,0.00,CLR,,0.00,575.0,WeatherDisplay:10.37,2013-01-22 19:10:00,
2013-01-22 11:15:00,74.3,18.4,30.08,NW,319,3.5,3.5,12,0.00,CLR,,0.00,570.0,WeatherDisplay:10.37,2013-01-22 19:15:00,
2013-01-22 11:20:00,74.7,18.7,30.08,NW,319,3.5,3.5,12,0.00,CLR,,0.00,571.0,WeatherDisplay:10.37,2013-01-22 19:20:00,
2013-01-22 11:25:00,75.0,18.9,30.07,NW,314,3.5,3.5,12,0.00,CLR,,0.00,573.0,WeatherDisplay:10.37,2013-01-22 19:25:00,
2013-01-22 11:30:00,75.3,17.1,30.07,NNW,334,3.5,3.5,11,0.00,CLR,,0.00,578.0,WeatherDisplay:10.37,2013-01-22 19:30:00,
2013-01-22 11:35:00,75.7,17.4,30.06,NW,316,1.1,1.1,11,0.00,CLR,,0.00,582.0,WeatherDisplay:10.37,2013-01-22 19:35:00,
2013-01-22 11:40:00,76.4,18.0,30.05,NNW,338,3.5,3.5,11,0.00,CLR,,0.00,587.0,WeatherDisplay:10.37,2013-01-22 19:40:00,
2013-01-22 11:45:00,76.7,18.2,30.05,NW,315,3.5,3.5,11,0.00,CLR,,0.00,596.0,WeatherDisplay:10.37,2013-01-22 19:45:00,
2013-01-22 11:50:00,77.0,18.4,30.05,NW,315,3.5,3.5,11,0.00,CLR,,0.00,598.0,WeatherDisplay:10.37,2013-01-22 19:50:00,
2013-01-22 11:55:00,77.5,18.8,30.05,NNW,346,2.3,2.3,11,0.00,CLR,,0.00,594.0,WeatherDisplay:10.37,2013-01-22 19:55:00,
2013-01-22 12:00:00,77.9,16.9,30.04,NW,314,3.5,3.5,10,0.00,CLR,,0.00,592.0,WeatherDisplay:10.37,2013-01-22 20:00:00,
2013-01-22 12:05:00,78.0,19.2,30.04,SW,226,3.0,3.0,11,0.00,CLR,,0.00,598.0,WeatherDisplay:10.37,2013-01-22 20:05:00,
2013-01-22 12:10:00,78.6,19.7,30.04,SSW,199,5.8,5.8,11,0.00,CLR,,0.00,596.0,WeatherDisplay:10.37,2013-01-22 20:10:00,
2013-01-22 12:15:00,78.9,19.9,30.04,SW,236,3.5,3.5,11,0.00,CLR,,0.00,589.0,WeatherDisplay:10.37,2013-01-22 20:15:00,
2013-01-22 12:20:00,79.2,20.1,30.03,SW,233,3.5,3.5,11,0.00,CLR,,0.00,580.0,WeatherDisplay:10.37,2013-01-22 20:20:00,
2013-01-22 12:25:00,79.4,18.0,30.03,West,272,4.6,4.6,10,0.00,CLR,,0.00,571.0,WeatherDisplay:10.37,2013-01-22 20:25:00,
2013-01-22 12:30:00,79.5,18.1,30.03,SW,226,3.5,3.5,10,0.00,CLR,,0.00,561.0,WeatherDisplay:10.37,2013-01-22 20:30:00,
2013-01-22 12:35:00,79.6,18.2,30.02,SW,231,3.5,3.5,10,0.00,CLR,,0.00,568.0,WeatherDisplay:10.37,2013-01-22 20:35:00,
2013-01-22 12:40:00,79.8,15.9,30.02,SSW,212,3.5,3.5,9,0.00,CLR,,0.00,563.0,WeatherDisplay:10.37,2013-01-22 20:40:00,
2013-01-22 12:45:00,80.0,16.1,30.02,WSW,242,2.3,2.3,9,0.00,CLR,,0.00,596.0,WeatherDisplay:10.37,2013-01-22 20:45:00,
2013-01-22 12:50:00,79.9,16.0,30.02,WSW,257,3.5,3.5,9,0.00,CLR,,0.00,490.0,WeatherDisplay:10.37,2013-01-22 20:50:00,
2013-01-22 12:55:00,80.1,16.1,30.02,WSW,257,2.3,0.0,9,0.00,FEW,,0.00,450.0,WeatherDisplay:10.37,2013-01-22 20:55:00,
2013-01-22 13:00:00,80.3,16.3,30.01,WSW,258,2.0,2.0,9,0.00,CLR,,0.00,545.0,WeatherDisplay:10.37,2013-01-22 21:00:00,
2013-01-22 13:05:00,80.7,16.6,30.01,SSW,209,4.6,4.6,9,0.00,CLR,,0.00,596.0,WeatherDisplay:10.37,2013-01-22 21:05:00,
2013-01-22 13:10:00,80.9,14.0,30.01,WSW,242,3.5,3.5,8,0.00,CLR,,0.00,297.0,WeatherDisplay:10.37,2013-01-22 21:10:00,
2013-01-22 13:15:00,80.9,14.0,30.01,WSW,240,3.5,3.5,8,0.00,FEW,,0.00,425.0,WeatherDisplay:10.37,2013-01-22 21:15:00,
2013-01-22 13:20:00,80.7,16.6,30.01,South,189,3.5,3.5,9,0.00,SCT,,0.00,367.0,WeatherDisplay:10.37,2013-01-22 21:20:00,
2013-01-22 13:25:00,80.6,16.5,30.01,South,190,4.0,4.0,9,0.00,SCT,,0.00,348.0,WeatherDisplay:10.37,2013-01-22 21:25:00,
2013-01-22 13:30:00,80.5,13.7,30.01,South,175,6.0,6.0,8,0.00,SCT,,0.00,290.0,WeatherDisplay:10.37,2013-01-22 21:30:00,
2013-01-22 13:31:00,80.4,13.7,30.01,South,175,5.8,5.8,8,0.00,SCT,,0.00,343.0,WeatherDisplay:10.37,2013-01-22 21:31:00,
2013-01-22 13:36:00,80.2,16.2,30.01,SW,222,5.8,5.8,9,0.00,SCT,,0.00,348.0,WeatherDisplay:10.37,2013-01-22 21:36:00,
2013-01-22 13:41:00,80.2,13.5,30.01,West,272,5.8,5.8,8,0.00,SCT,,0.00,322.0,WeatherDisplay:10.37,2013-01-22 21:41:00,
2013-01-22 13:46:00,80.2,13.5,30.01,WSW,248,7.0,7.0,8,0.00,SCT,,0.00,297.0,WeatherDisplay:10.37,2013-01-22 21:46:00,
2013-01-22 13:52:00,80.0,13.4,30.01,SSW,207,4.0,4.0,8,0.00,SCT,,0.00,292.0,WeatherDisplay:10.37,2013-01-22 21:52:00,
2013-01-22 13:57:00,80.0,13.4,30.01,SSW,197,5.8,5.8,8,0.00,SCT,,0.00,267.0,WeatherDisplay:10.37,2013-01-22 21:57:00,
2013-01-22 14:02:00,79.9,16.0,30.02,WSW,240,5.8,5.8,9,0.00,SCT,,0.00,315.0,WeatherDisplay:10.37,2013-01-22 22:02:00,
2013-01-22 14:07:00,79.8,13.2,30.02,WSW,244,5.8,5.8,8,0.00,FEW,,0.00,345.0,WeatherDisplay:10.37,2013-01-22 22:07:00,
2013-01-22 14:12:00,79.8,13.2,30.02,West,265,7.0,7.0,8,0.00,CLR,,0.00,422.0,WeatherDisplay:10.37,2013-01-22 22:12:00,
2013-01-22 14:17:00,79.8,10.2,30.02,West,268,6.0,6.0,7,0.00,CLR,,0.00,397.0,WeatherDisplay:10.37,2013-01-22 22:17:00,
2013-01-22 14:22:00,80.0,10.3,30.01,West,271,4.6,4.6,7,0.00,CLR,,0.00,352.0,WeatherDisplay:10.37,2013-01-22 22:22:00,
2013-01-22 14:27:00,79.9,6.8,30.01,West,259,5.0,5.0,6,0.00,CLR,,0.00,330.0,WeatherDisplay:10.37,2013-01-22 22:27:00,
2013-01-22 14:32:00,79.8,6.8,30.01,West,269,6.9,6.9,6,0.00,CLR,,0.00,517.0,WeatherDisplay:10.37,2013-01-22 22:32:00,
2013-01-22 14:37:00,80.1,7.0,30.01,West,279,5.0,5.0,6,0.00,CLR,,0.00,401.0,WeatherDisplay:10.37,2013-01-22 22:37:00,
2013-01-22 14:42:00,80.1,10.4,30.01,WNW,284,6.0,6.0,7,0.00,FEW,,0.00,274.0,WeatherDisplay:10.37,2013-01-22 22:42:00,
2013-01-22 14:47:00,80.1,7.0,30.01,WNW,293,4.0,4.0,6,0.00,FEW,,0.00,311.0,WeatherDisplay:10.37,2013-01-22 22:47:00,
2013-01-22 14:52:00,80.4,10.6,30.01,WSW,256,7.0,7.0,7,0.00,CLR,,0.00,292.0,WeatherDisplay:10.37,2013-01-22 22:52:00,
2013-01-22 14:57:00,80.2,7.1,30.01,WSW,254,5.0,5.0,6,0.00,SCT,,0.00,178.0,WeatherDisplay:10.37,2013-01-22 22:57:00,
2013-01-22 15:02:00,80.0,6.9,30.01,WSW,242,3.5,3.5,6,0.00,SCT,,0.00,209.0,WeatherDisplay:10.37,2013-01-22 23:02:00,
2013-01-22 15:07:00,80.0,10.3,30.01,WSW,243,2.0,2.0,7,0.00,CLR,,0.00,248.0,WeatherDisplay:10.37,2013-01-22 23:07:00,
2013-01-22 15:12:00,80.3,7.1,30.01,SSW,209,4.0,4.0,6,0.00,FEW,,0.00,250.0,WeatherDisplay:10.37,2013-01-22 23:12:00,
2013-01-22 15:17:00,80.1,7.0,30.01,SW,215,3.5,3.5,6,0.00,SCT,,0.00,211.0,WeatherDisplay:10.37,2013-01-22 23:17:00,
2013-01-22 15:23:00,79.9,6.8,30.01,WSW,243,3.5,3.5,6,0.00,SCT,,0.00,146.0,WeatherDisplay:10.37,2013-01-22 23:23:00,
2013-01-22 15:28:00,79.8,6.8,30.01,WSW,244,3.5,3.5,6,0.00,SCT,,0.00,135.0,WeatherDisplay:10.37,2013-01-22 23:28:00,
2013-01-22 15:33:00,79.6,10.0,30.00,WSW,246,2.3,2.3,7,0.00,SCT,,0.00,144.0,WeatherDisplay:10.37,2013-01-22 23:33:00,
2013-01-22 15:38:00,79.4,12.9,30.00,WSW,246,1.1,1.1,8,0.00,SCT,,0.00,137.0,WeatherDisplay:10.37,2013-01-22 23:38:00,
2013-01-22 15:43:00,79.2,15.5,30.00,WSW,244,2.3,2.3,9,0.00,SCT,,0.00,116.0,WeatherDisplay:10.37,2013-01-22 23:43:00,
2013-01-22 15:48:00,78.7,15.1,30.00,SSW,199,3.5,3.5,9,0.00,SCT,,0.00,104.0,WeatherDisplay:10.37,2013-01-22 23:48:00,
2013-01-22 15:53:00,78.3,14.8,30.00,SSW,198,2.3,2.3,9,0.00,SCT,,0.00,97.0,WeatherDisplay:10.37,2013-01-22 23:53:00,
2013-01-22 15:58:00,77.9,14.5,30.00,SSW,198,3.5,3.5,9,0.00,SCT,,0.00,90.0,WeatherDisplay:10.37,2013-01-22 23:58:00,
2013-01-22 16:03:00,77.6,14.2,30.00,SSW,198,3.5,3.5,9,0.00,SCT,,0.00,84.0,WeatherDisplay:10.37,2013-01-23 00:03:00,
2013-01-22 16:08:00,77.2,13.9,30.00,SSW,202,3.5,3.5,9,0.00,SCT,,0.00,77.0,WeatherDisplay:10.37,2013-01-23 00:08:00,
2013-01-22 16:13:00,76.9,13.7,30.00,SSW,204,3.5,3.5,9,0.00,SCT,,0.00,70.0,WeatherDisplay:10.37,2013-01-23 00:13:00,
2013-01-22 16:18:00,76.5,15.8,30.00,SSW,204,4.0,4.0,10,0.00,SCT,,0.00,62.0,WeatherDisplay:10.37,2013-01-23 00:18:00,
2013-01-22 16:23:00,76.2,17.8,30.00,SSW,204,4.0,4.0,11,0.00,SCT,,0.00,56.0,WeatherDisplay:10.37,2013-01-23 00:23:00,
2013-01-22 16:28:00,75.8,17.5,30.00,SSW,204,3.5,3.5,11,0.00,SCT,,0.00,47.0,WeatherDisplay:10.37,2013-01-23 00:28:00,
2013-01-22 16:33:00,75.5,17.3,30.00,SSW,204,4.0,4.0,11,0.00,BKN,,0.00,39.0,WeatherDisplay:10.37,2013-01-23 00:33:00,
2013-01-22 16:38:00,75.1,17.0,30.01,SSW,204,3.5,3.5,11,0.00,BKN,,0.00,30.0,WeatherDisplay:10.37,2013-01-23 00:38:00,
2013-01-22 16:43:00,74.7,18.7,30.01,SSW,204,3.5,3.5,12,0.00,BKN,,0.00,25.0,WeatherDisplay:10.37,2013-01-23 00:43:00,
2013-01-22 16:48:00,74.5,18.5,30.01,SSW,204,2.3,2.3,12,0.00,BKN,,0.00,21.0,WeatherDisplay:10.37,2013-01-23 00:48:00,
2013-01-22 16:53:00,74.1,18.2,30.01,SSW,204,4.0,4.0,12,0.00,BKN,,0.00,18.0,WeatherDisplay:10.37,2013-01-23 00:53:00,
2013-01-22 16:58:00,73.7,17.9,30.01,SSW,205,4.0,4.0,12,0.00,SCT,,0.00,12.0,WeatherDisplay:10.37,2013-01-23 00:58:00,
2013-01-22 17:03:00,73.4,17.6,30.01,SSW,205,5.0,5.0,12,0.00,SCT,,0.00,9.0,WeatherDisplay:10.37,2013-01-23 01:03:00,
2013-01-22 17:08:00,73.1,17.4,30.02,SSW,205,4.0,4.0,12,0.00,CLR,,0.00,5.0,WeatherDisplay:10.37,2013-01-23 01:08:00,
2013-01-22 17:13:00,72.7,20.7,30.02,SSW,206,2.3,2.3,14,0.00,CLR,,0.00,0.0,WeatherDisplay:10.37,2013-01-23 01:13:00,
2013-01-22 17:18:00,72.3,25.0,30.02,WSW,256,3.5,3.5,17,0.00,CLR,,0.00,0.0,WeatherDisplay:10.37,2013-01-23 01:18:00,
2013-01-22 17:23:00,72.0,24.8,30.02,West,278,3.5,3.5,17,0.00,CLR,,0.00,0.0,WeatherDisplay:10.37,2013-01-23 01:23:00,
2013-01-22 17:28:00,71.5,24.4,30.02,West,269,4.6,4.6,17,0.00,CLR,,0.00,0.0,WeatherDisplay:10.37,2013-01-23 01:28:00,
2013-01-22 17:33:00,71.1,24.0,30.02,West,274,4.6,4.6,17,0.00,CLR,,0.00,0.0,WeatherDisplay:10.37,2013-01-23 01:33:00,
2013-01-22 17:38:00,70.7,25.1,30.03,West,274,2.0,2.0,18,0.00,CLR,,0.00,0.0,WeatherDisplay:10.37,2013-01-23 01:38:00,
2013-01-22 17:43:00,70.2,24.7,30.03,West,274,1.0,1.0,18,0.00,CLR,,0.00,0.0,WeatherDisplay:10.37,2013-01-23 01:43:00,
2013-01-22 17:48:00,69.6,25.5,30.03,West,279,3.5,3.5,19,0.00,CLR,,0.00,0.0,WeatherDisplay:10.37,2013-01-23 01:48:00,
2013-01-22 17:53:00,69.3,25.2,30.03,West,281,1.1,1.1,19,0.00,CLR,,0.00,0.0,WeatherDisplay:10.37,2013-01-23 01:53:00,
2013-01-22 17:58:00,69.1,26.3,30.03,West,281,0.0,0.0,20,0.00,CLR,,0.00,0.0,WeatherDisplay:10.37,2013-01-23 01:58:00,
2013-01-22 18:03:00,68.7,27.2,30.03,West,281,0.0,0.0,21,0.00,CLR,,0.00,0.0,WeatherDisplay:10.37,2013-01-23 02:03:00,
2013-01-22 18:08:00,68.3,26.8,30.03,West,281,0.0,0.0,21,0.00,CLR,,0.00,0.0,WeatherDisplay:10.37,2013-01-23 02:08:00,
2013-01-22 18:13:00,67.8,26.4,30.03,West,281,0.0,0.0,21,0.00,CLR,,0.00,0.0,WeatherDisplay:10.37,2013-01-23 02:13:00,
2013-01-22 18:18:00,67.4,24.9,30.03,West,281,1.1,1.1,20,0.00,CLR,,0.00,0.0,WeatherDisplay:10.37,2013-01-23 02:18:00,
2013-01-22 18:23:00,67.1,25.8,30.04,West,281,1.1,1.1,21,0.00,CLR,,0.00,0.0,WeatherDisplay:10.37,2013-01-23 02:23:00,
2013-01-22 18:28:00,66.8,25.6,30.04,West,281,0.0,0.0,21,0.00,CLR,,0.00,0.0,WeatherDisplay:10.37,2013-01-23 02:28:00,
2013-01-22 18:33:00,66.5,26.4,30.04,West,281,0.0,0.0,22,0.00,CLR,,0.00,0.0,WeatherDisplay:10.37,2013-01-23 02:33:00,
2013-01-22 18:38:00,66.2,26.2,30.04,West,281,0.0,0.0,22,0.00,CLR,,0.00,0.0,WeatherDisplay:10.37,2013-01-23 02:38:00,
2013-01-22 18:43:00,65.9,25.9,30.04,West,281,0.0,0.0,22,0.00,CLR,,0.00,0.0,WeatherDisplay:10.37,2013-01-23 02:43:00,
2013-01-22 18:48:00,65.6,27.8,30.05,West,281,0.0,0.0,24,0.00,CLR,,0.00,0.0,WeatherDisplay:10.37,2013-01-23 02:48:00,
2013-01-22 18:53:00,65.2,28.5,30.05,West,281,0.0,0.0,25,0.00,CLR,,0.00,0.0,WeatherDisplay:10.37,2013-01-23 02:53:00,
2013-01-22 18:58:00,64.6,28.9,30.05,West,281,0.0,0.0,26,0.00,CLR,,0.00,0.0,WeatherDisplay:10.37,2013-01-23 02:58:00,
2013-01-22 19:03:00,64.1,28.5,30.05,West,281,0.0,0.0,26,0.00,CLR,,0.00,0.0,WeatherDisplay:10.37,2013-01-23 03:03:00,
2013-01-22 19:09:00,63.7,29.1,30.05,West,281,1.1,1.1,27,0.00,CLR,,0.00,0.0,WeatherDisplay:10.37,2013-01-23 03:09:00,
2013-01-22 19:14:00,63.3,29.6,30.05,West,281,0.0,0.0,28,0.00,CLR,,0.00,0.0,WeatherDisplay:10.37,2013-01-23 03:14:00,
2013-01-22 19:19:00,63.0,30.2,30.04,West,281,1.1,0.0,29,0.00,CLR,,0.00,0.0,WeatherDisplay:10.37,2013-01-23 03:19:00,
2013-01-22 19:24:00,62.7,30.0,30.04,WNW,303,2.3,2.3,29,0.00,CLR,,0.00,0.0,WeatherDisplay:10.37,2013-01-23 03:24:00,
2013-01-22 19:29:00,62.4,30.5,30.04,NW,304,1.1,1.1,30,0.00,CLR,,0.00,0.0,WeatherDisplay:10.37,2013-01-23 03:29:00,
2013-01-22 19:34:00,62.2,29.5,30.04,NW,304,1.1,0.0,29,0.00,CLR,,0.00,0.0,WeatherDisplay:10.37,2013-01-23 03:34:00,
2013-01-22 19:39:00,62.0,30.2,30.04,NW,304,0.0,0.0,30,0.00,CLR,,0.00,0.0,WeatherDisplay:10.37,2013-01-23 03:39:00,
2013-01-22 19:44:00,61.7,30.7,30.04,NW,304,0.0,0.0,31,0.00,CLR,,0.00,0.0,WeatherDisplay:10.37,2013-01-23 03:44:00,
2013-01-22 19:49:00,61.3,31.2,30.04,NW,304,0.0,0.0,32,0.00,CLR,,0.00,0.0,WeatherDisplay:10.37,2013-01-23 03:49:00,
2013-01-22 19:54:00,60.9,30.8,30.04,NW,304,0.0,0.0,32,0.00,CLR,,0.00,0.0,WeatherDisplay:10.37,2013-01-23 03:54:00,
2013-01-22 19:59:00,60.7,30.6,30.04,NW,304,1.1,1.1,32,0.00,CLR,,0.00,0.0,WeatherDisplay:10.37,2013-01-23 03:59:00,
2013-01-22 20:04:00,60.5,31.2,30.04,NW,304,0.0,0.0,33,0.00,CLR,,0.00,0.0,WeatherDisplay:10.37,2013-01-23 04:04:00,
2013-01-22 20:09:00,60.2,31.7,30.05,NW,304,0.0,0.0,34,0.00,CLR,,0.00,0.0,WeatherDisplay:10.37,2013-01-23 04:09:00,
2013-01-22 20:14:00,59.9,32.2,30.05,NW,304,0.0,0.0,35,0.00,CLR,,0.00,0.0,WeatherDisplay:10.37,2013-01-23 04:14:00,
2013-01-22 20:19:00,59.6,31.9,30.05,NW,304,0.0,0.0,35,0.00,CLR,,0.00,0.0,WeatherDisplay:10.37,2013-01-23 04:19:00,
2013-01-22 20:24:00,59.4,31.7,30.05,NW,304,0.0,0.0,35,0.00,CLR,,0.00,0.0,WeatherDisplay:10.37,2013-01-23 04:24:00,
2013-01-22 20:29:00,59.0,32.1,30.05,NW,304,0.0,0.0,36,0.00,CLR,,0.00,0.0,WeatherDisplay:10.37,2013-01-23 04:29:00,
2013-01-22 20:34:00,58.9,31.3,30.05,NW,304,0.0,0.0,35,0.00,CLR,,0.00,0.0,WeatherDisplay:10.37,2013-01-23 04:34:00,
2013-01-22 20:39:00,58.9,31.3,30.05,NW,304,0.0,0.0,35,0.00,CLR,,0.00,0.0,WeatherDisplay:10.37,2013-01-23 04:39:00,
2013-01-22 20:44:00,58.6,31.7,30.05,NW,304,0.0,0.0,36,0.00,CLR,,0.00,0.0,WeatherDisplay:10.37,2013-01-23 04:44:00,
2013-01-22 20:49:00,58.4,31.5,30.05,NW,304,0.0,0.0,36,0.00,CLR,,0.00,0.0,WeatherDisplay:10.37,2013-01-23 04:49:00,
2013-01-22 20:54:00,58.2,31.3,30.05,NW,304,0.0,0.0,36,0.00,CLR,,0.00,0.0,WeatherDisplay:10.37,2013-01-23 04:54:00,
2013-01-22 20:59:00,57.9,31.1,30.05,NW,304,1.1,1.1,36,0.00,CLR,,0.00,0.0,WeatherDisplay:10.37,2013-01-23 04:59:00,
2013-01-22 21:02:00,57.8,31.0,30.06,NW,304,1.1,0.0,36,0.00,CLR,,0.00,0.0,WeatherDisplay:10.37,2013-01-23 05:02:00,
2013-01-22 21:03:00,57.8,31.0,30.06,NW,304,0.0,0.0,36,0.00,CLR,,0.00,0.0,WeatherDisplay:10.37,2013-01-23 05:03:00,
2013-01-22 21:04:00,57.7,31.6,30.06,NW,304,2.0,2.0,37,0.00,CLR,,0.00,0.0,WeatherDisplay:10.37,2013-01-23 05:04:00,
2013-01-22 21:09:00,57.3,31.2,30.06,North,11,1.1,1.1,37,0.00,CLR,,0.00,0.0,WeatherDisplay:10.37,2013-01-23 05:09:00,
2013-01-22 21:14:00,57.2,31.1,30.06,North,11,1.1,1.1,37,0.00,CLR,,0.00,0.0,WeatherDisplay:10.37,2013-01-23 05:14:00,
2013-01-22 21:19:00,57.1,31.7,30.06,North,11,0.0,0.0,38,0.00,CLR,,0.00,0.0,WeatherDisplay:10.37,2013-01-23 05:19:00,
2013-01-22 21:24:00,56.9,30.9,30.06,North,11,0.0,0.0,37,0.00,CLR,,0.00,0.0,WeatherDisplay:10.37,2013-01-23 05:24:00,
2013-01-22 21:29:00,56.7,31.4,30.06,North,11,1.1,1.1,38,0.00,CLR,,0.00,0.0,WeatherDisplay:10.37,2013-01-23 05:29:00,
2013-01-22 21:34:00,56.4,31.7,30.06,North,11,1.1,1.1,39,0.00,CLR,,0.00,0.0,WeatherDisplay:10.37,2013-01-23 05:34:00,
2013-01-22 21:39:00,56.4,31.1,30.06,North,11,0.0,0.0,38,0.00,CLR,,0.00,0.0,WeatherDisplay:10.37,2013-01-23 05:39:00,
2013-01-22 21:44:00,56.3,31.0,30.06,North,11,0.0,0.0,38,0.00,CLR,,0.00,0.0,WeatherDisplay:10.37,2013-01-23 05:44:00,
2013-01-22 21:49:00,56.3,30.3,30.06,North,11,0.0,0.0,37,0.00,CLR,,0.00,0.0,WeatherDisplay:10.37,2013-01-23 05:49:00,
2013-01-22 21:54:00,56.6,29.9,30.06,North,11,1.1,0.0,36,0.00,CLR,,0.00,0.0,WeatherDisplay:10.37,2013-01-23 05:54:00,
2013-01-22 21:59:00,57.0,30.3,30.06,North,11,1.1,1.1,36,0.00,CLR,,0.00,0.0,WeatherDisplay:10.37,2013-01-23 05:59:00,
2013-01-22 22:04:00,57.1,30.4,30.06,North,5,2.3,2.3,36,0.00,CLR,,0.00,0.0,WeatherDisplay:10.37,2013-01-23 06:04:00,
2013-01-22 22:09:00,57.1,30.4,30.07,North,5,0.0,0.0,36,0.00,CLR,,0.00,0.0,WeatherDisplay:10.37,2013-01-23 06:09:00,
2013-01-22 22:14:00,57.0,30.3,30.07,North,5,1.1,0.0,36,0.00,CLR,,0.00,0.0,WeatherDisplay:10.37,2013-01-23 06:14:00,
2013-01-22 22:19:00,56.9,30.2,30.07,North,5,0.0,0.0,36,0.00,CLR,,0.00,0.0,WeatherDisplay:10.37,2013-01-23 06:19:00,
2013-01-22 22:24:00,56.9,29.5,30.07,North,5,0.0,0.0,35,0.00,CLR,,0.00,0.0,WeatherDisplay:10.37,2013-01-23 06:24:00,
2013-01-22 22:29:00,56.8,30.1,30.07,North,5,0.0,0.0,36,0.00,CLR,,0.00,0.0,WeatherDisplay:10.37,2013-01-23 06:29:00,
2013-01-22 22:34:00,56.6,29.9,30.07,North,5,0.0,0.0,36,0.00,CLR,,0.00,0.0,WeatherDisplay:10.37,2013-01-23 06:34:00,
2013-01-22 22:39:00,56.6,30.6,30.07,North,5,1.1,0.0,37,0.00,CLR,,0.00,0.0,WeatherDisplay:10.37,2013-01-23 06:39:00,
2013-01-22 22:44:00,56.6,30.6,30.07,North,5,1.1,0.0,37,0.00,CLR,,0.00,0.0,WeatherDisplay:10.37,2013-01-23 06:44:00,
2013-01-22 22:49:00,56.5,31.2,30.07,North,5,0.0,0.0,38,0.00,CLR,,0.00,0.0,WeatherDisplay:10.37,2013-01-23 06:49:00,
2013-01-22 22:54:00,56.5,31.2,30.06,North,5,1.1,1.1,38,0.00,CLR,,0.00,0.0,WeatherDisplay:10.37,2013-01-23 06:54:00,
2013-01-22 22:59:00,56.5,31.2,30.06,NNE,13,2.3,0.0,38,0.00,CLR,,0.00,0.0,WeatherDisplay:10.37,2013-01-23 06:59:00,
2013-01-22 23:04:00,56.2,31.5,30.06,NNE,13,2.0,2.0,39,0.00,CLR,,0.00,0.0,WeatherDisplay:10.37,2013-01-23 07:04:00,
2013-01-22 23:10:00,55.9,31.9,30.06,NNE,13,0.0,0.0,40,0.00,CLR,,0.00,0.0,WeatherDisplay:10.37,2013-01-23 07:10:00,
2013-01-22 23:15:00,55.7,31.7,30.06,NNE,13,0.0,0.0,40,0.00,CLR,,0.00,0.0,WeatherDisplay:10.37,2013-01-23 07:15:00,
2013-01-22 23:20:00,55.5,32.2,30.06,NNE,13,1.0,1.0,41,0.00,CLR,,0.00,0.0,WeatherDisplay:10.37,2013-01-23 07:20:00,
2013-01-22 23:25:00,55.5,32.2,30.06,NNE,13,0.0,0.0,41,0.00,CLR,,0.00,0.0,WeatherDisplay:10.37,2013-01-23 07:25:00,
2013-01-22 23:30:00,55.2,32.5,30.06,NNE,13,0.0,0.0,42,0.00,CLR,,0.00,0.0,WeatherDisplay:10.37,2013-01-23 07:30:00,
2013-01-22 23:35:00,55.1,32.4,30.06,NNE,13,0.0,0.0,42,0.00,CLR,,0.00,0.0,WeatherDisplay:10.37,2013-01-23 07:35:00,
2013-01-22 23:40:00,54.9,32.2,30.06,NNE,13,0.0,0.0,42,0.00,CLR,,0.00,0.0,WeatherDisplay:10.37,2013-01-23 07:40:00,
2013-01-22 23:45:00,54.7,32.0,30.06,NNE,13,0.0,0.0,42,0.00,CLR,,0.00,0.0,WeatherDisplay:10.37,2013-01-23 07:45:00,
2013-01-22 23:50:00,54.6,32.5,30.06,NNE,13,0.0,0.0,43,0.00,CLR,,0.00,0.0,WeatherDisplay:10.37,2013-01-23 07:50:00,
2013-01-22 23:55:00,54.5,31.9,30.05,NNE,13,1.1,0.0,42,0.00,CLR,,0.00,0.0,WeatherDisplay:10.37,2013-01-23 07:55:00,